Immagine casuale
Testata Regione Lazio ARSIAL SIARL

Ultima Misura Rilevata

Temperatura, Umidità, Pioggia, Pressione Radiazione Solare, Venti, Evapotraspirazione, ecc.
Temperature diurne e notturne Direzione vento Legenda
Prov Stazione Data TMin TMed TMax UMed Pioggia PMed
FR ALATRI Basciano 19/01/2018 6,2 8 9,8 97 2,6 1.010
FR ALVITO Az. Ist. S. Benedetto 19/01/2018 5,4 7,6 10 98 2,6 1.017
FR ANAGNI La Gloria 19/01/2018 6,6 8 10,2 100 3,6 1.016
FR ARPINO Vigne Piane 19/01/2018 6,1 7,6 8,9 100 3,4 1.009
FR BOVILLE ERNICA Sasso 19/01/2018 6,7 8,4 10,4 96 2 1.015
FR ESPERIA Modale 19/01/2018 6,8 8,2 10,3 78 1,4 1.011
FR PASTENA Acero 19/01/2018 6,8 8,1 11,5 99 1,8 1.013
FR PIGLIO Civitella 19/01/2018 6,6 8,1 10,5 100 4,2 1.022
FR PONTECORVO Melfi di Sotto 19/01/2018 7,3 8,7 10,8 100 2 ----
FR S. ELIA FIUMERAPIDO Portella 19/01/2018 7 8,6 10,5 100 2,4 1.015
FR S. GIORGIO A LIRI Porto 19/01/2018 7,1 8,7 11,7 99 1,6 1.011
FR SGURGOLA Campo Lungo 19/01/2018 7,3 8,6 9,8 100 2,4 ----
FR VALLECORSA Serbatoio comunale 19/01/2018 7,2 9 9,9 89 1,4 1.017
LT APRILIA Le Ferriere 19/01/2018 9,4 11,9 13,4 87 0,6 1.014
LT CISTERNA B.go Carso 19/01/2018 9,1 10,1 11,4 100 1,3 ----
LT CISTERNA Doganella di Ninfa 19/01/2018 10,1 11,1 12,4 95 2 1.015
LT CORI Portone 19/01/2018 9,7 10,6 11,7 95 3,2 1.014
LT FONDI Capratica 19/01/2018 9,8 11,1 13,8 98 1,2 1.014
LT FORMIA Loc. Gianola 19/01/2018 9,2 11,4 13,9 89 0,8 ----
LT ITRI Valle Quercia 19/01/2018 9,3 10,5 11,9 91 2 1.014
LT MAENZA Casacotta 19/01/2018 8,8 10 11,4 100 6 1.011
LT MINTURNO Pulcherini 19/01/2018 8,6 10,6 12,4 100 1,4 1.016
LT PONTINIA Cotarda 19/01/2018 9,4 10,9 13,1 96 2,2 1.013
LT SABAUDIA Acquaviva 19/01/2018 9,4 10,9 12,9 87 0 1.014
LT SONNINO Frasso 19/01/2018 10,2 11,8 13,1 88 1,8 1.015
RI ACCUMOLI Terracino 19/01/2018 2,3 4,2 7 96 1,1 1.013
RI BORGOVELINO Ponte Basso 19/01/2018 6,5 8,7 10,4 90 1,4 1.013
RI CANTALUPO S. Francesco 19/01/2018 7,8 9,7 11,1 99 2,8 ----
RI CASTEL DI TORA Monte di Tora 19/01/2018 6,5 7,7 8,9 97 1,6 1.009
RI CASTELNUOVO FARFA C. Spadone 19/01/2018 10,1 11 11,9 95 1 ----
RI CONFIGNI Portella 19/01/2018 8,6 9,1 9,7 99 4,8 1.012
RI FARA SABINA Canneto 19/01/2018 9,6 10,5 11,8 91 1 1.021
RI FARA SABINA Sant'Andrea 19/01/2018 9,4 10,8 12,5 93 0,8 ----
RI MONTELEONE S. Prato Camino 19/01/2018 7,8 8,8 11 95 2,2 1.009
RI MONTOPOLI IN SABINA Colle Arcone 19/01/2018 9,6 10,5 11,7 100 1,4 ----
RI MONTOPOLI IN SABINA Villa Caprola 19/01/2018 9,9 11 12,9 100 2,2 ----
RI POGGIO CATINO Pastine 19/01/2018 9 9,9 10,7 96 1,8 ----
RI POGGIO NATIVO Casali 19/01/2018 8,5 9,2 10,1 99 1,2 ----
RI RIETI Piana di Rieti 19/01/2018 7,2 8,9 10,6 88 2,1 1.014
RI SCANDRIGLIA Ponticelli 19/01/2018 9 9,9 11,1 97 1,4 ----
RM AGOSTA La Cisterna 19/01/2018 6,5 7,6 9,5 100 5,8 1.010
RM BRACCIANO Prato Pianciano 19/01/2018 6,9 10,4 11,9 95 0,2 1.008
RM CANALE MONTERANO Monte Virginio 19/01/2018 6,7 9,6 10,7 99 0,6 1.012
RM CERVETERI Campo di Mare 19/01/2018 9,7 13,2 14,1 78 0 ----
RM CIVITELLA S.PAOLO Le Cese 19/01/2018 8 9,6 11,9 97 2,2 1.010
RM FIUMICINO Maccarese 19/01/2018 8,1 12,9 14,4 83 0 1.013
RM FIUMICINO Testa di Lepre 19/01/2018 8,6 11,8 13,1 92 0,4 ----
RM FRASCATI Prata Porci 19/01/2018 7,1 11,4 13,2 96 0,6 1.013
RM GENAZZANO Coop. La Sonnina 19/01/2018 6,6 8 9,5 100 7,8 1.016
RM GROTTAFERRATA Valle Marciana 19/01/2018 8,9 10,6 11,8 91 1,8 1.014
RM LICENZA Colle Franco 19/01/2018 6,4 7,8 9 80 16,2 1.009
RM MARCELLINA V. Campetella 19/01/2018 9,6 10,8 12,6 96 2,6 ----
RM MARINO Gotto d'Oro 19/01/2018 9,7 10,5 11,6 100 2 1.013
RM MONTECOMPATRI Colle Mattia 19/01/2018 7,8 11,3 13,2 86 0,8 1.014
RM MONTECOMPATRI Pantano Borghese 19/01/2018 8,6 11 13,9 89 0,4 1.005
RM MONTELIBRETTI Bruciati 19/01/2018 7,5 11,2 13 90 1 ----
RM MONTEPORZIO Camaldoli 19/01/2018 7,2 8 8,8 100 4,2 1.016
RM MONTEROTONDO Grotta Marozza 19/01/2018 9,6 11 12,9 91 0,6 1.016
RM PALOMBARA Fonte Grande 19/01/2018 8,8 10,3 11,8 87 1,4 ----
RM ROMA Capocotta 19/01/2018 8,7 10,8 12,1 89 0,9 ----
RM ROMA Ponte di Nona 19/01/2018 9 11,1 13,3 100 0,8 N.D.
RM ROMA Via Lanciani 38 19/01/2018 10,4 12,3 14 91 0,7 1.014
RM S. GREGORIO C. Faustiniano 19/01/2018 8,1 9,2 10,1 95 3 1.008
RM VELLETRI Cantina Sperimentale 19/01/2018 7,9 9 9,8 100 8,2 1.008
RM VELLETRI Prato Lungo 19/01/2018 N.D. N.D. N.D. N.D. N.D. ----
RM ZAGAROLO Santa Apollara 19/01/2018 6,2 7,4 9,9 100 N.D. ----
VT ACQUAPENDENTE Falconiera 19/01/2018 0,9 7,2 10,5 96 0 1.013
VT BAGNOREGIO Castell Cellesi 19/01/2018 5 7,4 9,7 92 3 ----
VT BASSANO R. Piano Mola 19/01/2018 6,4 8,9 9,8 100 1 1.009
VT BLERA Puntoni 19/01/2018 7,6 10,2 11,7 93 0 1.011
VT BOLSENA Capone 19/01/2018 5,4 8,9 11,1 95 0 1.010
VT BOLSENA Rentica 19/01/2018 4,8 8,9 10,9 96 0,2 ----
VT CANINO Diga Timone 19/01/2018 2,9 8,4 12,7 98 0,2 1.010
VT CANINO Pianacce 19/01/2018 6,5 10,1 12,6 93 0 1.012
VT CANINO San Valeriano 19/01/2018 6,6 10,5 13,1 100 0 ----
VT CELLENO Acquaforte 19/01/2018 3,2 7,8 10,4 96 1,8 ----
VT CORCHIANO Pantalone 19/01/2018 5,3 9,9 12,9 96 0,2 1.012
VT FARNESE Gressa 19/01/2018 4,8 8,6 10,9 96 0,1 ----
VT FARNESE Pian di Sala 19/01/2018 1,5 7,1 10 99 0,1 ----
VT GROTTE DI CASTRO Borghetto 19/01/2018 3 8 11,1 99 0 1.019
VT GROTTE DI CASTRO Purgatorio 19/01/2018 2 7,7 10,2 99 0 1.017
VT LATERA Centro Florovivaistico 19/01/2018 1,7 7,9 11 93 0 1.007
VT MONTALTO Le Murelle 19/01/2018 5,3 12 14 86 0 1.013
VT MONTALTO Pescia Romana 19/01/2018 7 10,8 14,4 N.D. 0 1.007
VT MONTEFIASCONE Commenda 19/01/2018 6,4 9,7 11,5 98 0 ----
VT RONCIGLIONE Ponterotto 19/01/2018 4,1 9,4 11,6 94 0,2 ----
VT SORIANO CIMINO Pantane 19/01/2018 6,5 9,3 12,2 98 0,2 1.010
VT SORIANO CIMINO Poggio di Chia 19/01/2018 6,2 9,1 11,5 98 0,6 ----
VT TARQUINIA Portaccia 19/01/2018 8,8 12,1 14,3 91 0 ----
VT TUSCANIA Montebello 19/01/2018 7,5 10,4 12,2 93 0 ----
VT VETRALLA Marchionato 19/01/2018 7,4 10,4 11,9 100 0 ----
VT VITERBO Pisello 19/01/2018 6,2 9,3 11,3 99 0 ----
N.D. = Dati Non Disponibili
---- = Sensore non presente

Le misure esposte sono grezze, ovvero non sono state validate